sensor_id;sensor_type;location;lat;lon;timestamp;temperature;humidity
17659;DHT22;8948;51.534;8.262;2023-08-24T00:04:33;20.60;63.90
17659;DHT22;8948;51.534;8.262;2023-08-24T00:09:34;20.50;63.80
17659;DHT22;8948;51.534;8.262;2023-08-24T00:14:35;20.40;63.80
17659;DHT22;8948;51.534;8.262;2023-08-24T00:19:35;20.40;64.20
17659;DHT22;8948;51.534;8.262;2023-08-24T00:24:36;20.40;64.10
17659;DHT22;8948;51.534;8.262;2023-08-24T00:29:37;20.30;64.50
17659;DHT22;8948;51.534;8.262;2023-08-24T00:34:37;20.20;64.80
17659;DHT22;8948;51.534;8.262;2023-08-24T00:39:38;20.20;64.80
17659;DHT22;8948;51.534;8.262;2023-08-24T00:44:38;20.10;65.00
17659;DHT22;8948;51.534;8.262;2023-08-24T00:49:39;20.10;65.10
17659;DHT22;8948;51.534;8.262;2023-08-24T00:54:41;20.00;65.00
17659;DHT22;8948;51.534;8.262;2023-08-24T00:59:41;19.90;65.10
17659;DHT22;8948;51.534;8.262;2023-08-24T01:04:42;19.90;65.20
17659;DHT22;8948;51.534;8.262;2023-08-24T01:09:43;19.80;65.40
17659;DHT22;8948;51.534;8.262;2023-08-24T01:20:18;19.70;65.40
17659;DHT22;8948;51.534;8.262;2023-08-24T01:30:29;19.60;65.70
17659;DHT22;8948;51.534;8.262;2023-08-24T01:35:31;19.50;65.90
17659;DHT22;8948;51.534;8.262;2023-08-24T01:40:53;19.50;65.90
17659;DHT22;8948;51.534;8.262;2023-08-24T01:45:58;19.40;66.00
17659;DHT22;8948;51.534;8.262;2023-08-24T01:51:00;19.40;66.20
17659;DHT22;8948;51.534;8.262;2023-08-24T01:56:08;19.40;66.00
17659;DHT22;8948;51.534;8.262;2023-08-24T02:01:09;19.30;66.30
17659;DHT22;8948;51.534;8.262;2023-08-24T02:06:10;19.30;66.30
17659;DHT22;8948;51.534;8.262;2023-08-24T02:11:11;19.20;66.50
17659;DHT22;8948;51.534;8.262;2023-08-24T02:16:11;19.20;66.50
17659;DHT22;8948;51.534;8.262;2023-08-24T02:21:13;19.10;66.30
17659;DHT22;8948;51.534;8.262;2023-08-24T02:26:14;19.10;70.20
17659;DHT22;8948;51.534;8.262;2023-08-24T02:31:15;19.30;69.20
17659;DHT22;8948;51.534;8.262;2023-08-24T02:36:16;19.40;69.90
17659;DHT22;8948;51.534;8.262;2023-08-24T02:41:17;19.50;67.70
17659;DHT22;8948;51.534;8.262;2023-08-24T02:46:17;19.60;68.80
17659;DHT22;8948;51.534;8.262;2023-08-24T02:51:21;19.60;66.00
17659;DHT22;8948;51.534;8.262;2023-08-24T02:56:22;19.50;68.00
17659;DHT22;8948;51.534;8.262;2023-08-24T03:01:22;19.50;68.30
17659;DHT22;8948;51.534;8.262;2023-08-24T03:06:23;19.50;65.90
17659;DHT22;8948;51.534;8.262;2023-08-24T03:11:26;19.30;66.10
17659;DHT22;8948;51.534;8.262;2023-08-24T03:16:27;19.10;66.70
17659;DHT22;8948;51.534;8.262;2023-08-24T03:21:27;19.00;66.60
17659;DHT22;8948;51.534;8.262;2023-08-24T03:26:28;18.90;67.20
17659;DHT22;8948;51.534;8.262;2023-08-24T03:31:28;18.80;67.10
17659;DHT22;8948;51.534;8.262;2023-08-24T03:36:29;18.70;67.60
17659;DHT22;8948;51.534;8.262;2023-08-24T03:41:30;18.60;67.50
17659;DHT22;8948;51.534;8.262;2023-08-24T03:46:30;18.60;67.50
17659;DHT22;8948;51.534;8.262;2023-08-24T03:51:31;18.60;67.60
17659;DHT22;8948;51.534;8.262;2023-08-24T03:56:32;18.60;67.70
17659;DHT22;8948;51.534;8.262;2023-08-24T04:01:32;18.60;67.80
17659;DHT22;8948;51.534;8.262;2023-08-24T04:06:33;18.70;67.80
17659;DHT22;8948;51.534;8.262;2023-08-24T04:11:33;18.70;67.90
17659;DHT22;8948;51.534;8.262;2023-08-24T04:16:34;18.60;67.90
17659;DHT22;8948;51.534;8.262;2023-08-24T04:21:35;18.60;67.80
17659;DHT22;8948;51.534;8.262;2023-08-24T04:26:35;18.70;67.80
17659;DHT22;8948;51.534;8.262;2023-08-24T04:31:36;18.80;67.90
17659;DHT22;8948;51.534;8.262;2023-08-24T04:36:37;18.80;67.70
17659;DHT22;8948;51.534;8.262;2023-08-24T04:41:38;18.90;67.70
17659;DHT22;8948;51.534;8.262;2023-08-24T04:46:39;18.90;68.30
17659;DHT22;8948;51.534;8.262;2023-08-24T04:51:39;18.90;67.70
17659;DHT22;8948;51.534;8.262;2023-08-24T04:56:40;18.90;68.30
17659;DHT22;8948;51.534;8.262;2023-08-24T05:01:40;18.80;67.90
17659;DHT22;8948;51.534;8.262;2023-08-24T05:06:41;18.90;68.60
17659;DHT22;8948;51.534;8.262;2023-08-24T05:11:41;18.90;68.00
17659;DHT22;8948;51.534;8.262;2023-08-24T05:16:42;18.90;68.20
17659;DHT22;8948;51.534;8.262;2023-08-24T05:21:43;19.00;68.60
17659;DHT22;8948;51.534;8.262;2023-08-24T05:26:43;19.00;68.10
17659;DHT22;8948;51.534;8.262;2023-08-24T05:31:44;19.10;67.90
17659;DHT22;8948;51.534;8.262;2023-08-24T05:36:44;19.20;68.60
17659;DHT22;8948;51.534;8.262;2023-08-24T05:41:45;19.30;69.10
17659;DHT22;8948;51.534;8.262;2023-08-24T05:46:46;19.30;68.90
17659;DHT22;8948;51.534;8.262;2023-08-24T05:51:50;19.30;69.00
17659;DHT22;8948;51.534;8.262;2023-08-24T05:56:51;19.40;69.50
17659;DHT22;8948;51.534;8.262;2023-08-24T06:01:51;19.50;68.00
17659;DHT22;8948;51.534;8.262;2023-08-24T06:06:52;19.60;70.10
17659;DHT22;8948;51.534;8.262;2023-08-24T06:11:53;19.60;69.80
17659;DHT22;8948;51.534;8.262;2023-08-24T06:16:53;19.60;70.20
17659;DHT22;8948;51.534;8.262;2023-08-24T06:21:54;19.70;70.60
17659;DHT22;8948;51.534;8.262;2023-08-24T06:26:55;19.70;69.90
17659;DHT22;8948;51.534;8.262;2023-08-24T06:31:56;19.70;70.20
17659;DHT22;8948;51.534;8.262;2023-08-24T06:37:01;19.80;69.60
17659;DHT22;8948;51.534;8.262;2023-08-24T06:42:02;19.90;70.00
17659;DHT22;8948;51.534;8.262;2023-08-24T06:47:03;19.90;70.60
17659;DHT22;8948;51.534;8.262;2023-08-24T06:52:04;20.00;70.90
17659;DHT22;8948;51.534;8.262;2023-08-24T06:57:05;20.00;70.70
17659;DHT22;8948;51.534;8.262;2023-08-24T07:02:05;20.00;70.60
17659;DHT22;8948;51.534;8.262;2023-08-24T07:07:06;20.10;71.00
17659;DHT22;8948;51.534;8.262;2023-08-24T07:12:07;20.10;70.30
17659;DHT22;8948;51.534;8.262;2023-08-24T07:17:10;20.20;70.50
17659;DHT22;8948;51.534;8.262;2023-08-24T07:22:10;20.30;70.90
17659;DHT22;8948;51.534;8.262;2023-08-24T07:27:11;20.50;71.10
17659;DHT22;8948;51.534;8.262;2023-08-24T07:32:12;20.70;70.30
17659;DHT22;8948;51.534;8.262;2023-08-24T07:37:13;21.00;70.40
17659;DHT22;8948;51.534;8.262;2023-08-24T07:42:13;21.30;70.40
17659;DHT22;8948;51.534;8.262;2023-08-24T07:47:14;21.50;70.00
17659;DHT22;8948;51.534;8.262;2023-08-24T07:52:15;21.70;68.80
17659;DHT22;8948;51.534;8.262;2023-08-24T07:57:15;22.00;67.70
17659;DHT22;8948;51.534;8.262;2023-08-24T08:02:16;22.20;66.60
17659;DHT22;8948;51.534;8.262;2023-08-24T08:07:17;22.10;66.50
17659;DHT22;8948;51.534;8.262;2023-08-24T08:12:18;22.20;67.40
17659;DHT22;8948;51.534;8.262;2023-08-24T08:17:18;22.80;66.20
17659;DHT22;8948;51.534;8.262;2023-08-24T08:22:19;23.30;65.20
17659;DHT22;8948;51.534;8.262;2023-08-24T08:27:20;23.70;65.70
17659;DHT22;8948;51.534;8.262;2023-08-24T08:32:21;24.10;64.00
17659;DHT22;8948;51.534;8.262;2023-08-24T08:37:21;24.40;63.60
17659;DHT22;8948;51.534;8.262;2023-08-24T08:42:22;24.40;63.00
17659;DHT22;8948;51.534;8.262;2023-08-24T08:47:22;24.60;62.50
17659;DHT22;8948;51.534;8.262;2023-08-24T08:52:24;24.90;61.80
17659;DHT22;8948;51.534;8.262;2023-08-24T08:57:25;25.00;64.10
17659;DHT22;8948;51.534;8.262;2023-08-24T09:02:29;25.20;63.20
17659;DHT22;8948;51.534;8.262;2023-08-24T09:07:32;25.40;63.70
17659;DHT22;8948;51.534;8.262;2023-08-24T09:12:35;25.70;62.90
17659;DHT22;8948;51.534;8.262;2023-08-24T09:17:35;25.70;61.10
17659;DHT22;8948;51.534;8.262;2023-08-24T09:22:36;26.00;58.10
17659;DHT22;8948;51.534;8.262;2023-08-24T09:27:38;26.20;60.40
17659;DHT22;8948;51.534;8.262;2023-08-24T09:32:38;26.50;57.70
17659;DHT22;8948;51.534;8.262;2023-08-24T09:37:39;26.70;57.40
17659;DHT22;8948;51.534;8.262;2023-08-24T09:42:41;26.80;57.70
17659;DHT22;8948;51.534;8.262;2023-08-24T09:48:00;27.20;57.60
17659;DHT22;8948;51.534;8.262;2023-08-24T09:53:02;27.30;58.00
17659;DHT22;8948;51.534;8.262;2023-08-24T09:58:06;27.60;59.60
17659;DHT22;8948;51.534;8.262;2023-08-24T10:03:10;27.70;56.40
17659;DHT22;8948;51.534;8.262;2023-08-24T10:08:12;27.90;56.50
17659;DHT22;8948;51.534;8.262;2023-08-24T10:13:18;28.00;57.30
17659;DHT22;8948;51.534;8.262;2023-08-24T10:18:22;28.10;54.70
17659;DHT22;8948;51.534;8.262;2023-08-24T10:23:24;28.30;54.90
17659;DHT22;8948;51.534;8.262;2023-08-24T10:28:26;28.40;54.70
17659;DHT22;8948;51.534;8.262;2023-08-24T10:33:27;28.50;57.10
17659;DHT22;8948;51.534;8.262;2023-08-24T10:38:29;28.50;54.40
17659;DHT22;8948;51.534;8.262;2023-08-24T10:43:34;28.30;52.20
17659;DHT22;8948;51.534;8.262;2023-08-24T10:53:45;28.70;56.30
17659;DHT22;8948;51.534;8.262;2023-08-24T10:58:47;28.90;54.10
17659;DHT22;8948;51.534;8.262;2023-08-24T11:03:54;29.10;52.10
17659;DHT22;8948;51.534;8.262;2023-08-24T11:09:08;29.30;53.10
17659;DHT22;8948;51.534;8.262;2023-08-24T11:14:19;29.30;50.30
17659;DHT22;8948;51.534;8.262;2023-08-24T11:19:22;29.40;54.00
17659;DHT22;8948;51.534;8.262;2023-08-24T11:24:24;29.40;51.20
17659;DHT22;8948;51.534;8.262;2023-08-24T11:29:25;29.50;54.40
17659;DHT22;8948;51.534;8.262;2023-08-24T11:34:26;29.90;52.10
17659;DHT22;8948;51.534;8.262;2023-08-24T11:39:26;30.20;52.00
17659;DHT22;8948;51.534;8.262;2023-08-24T11:44:48;30.40;52.60
17659;DHT22;8948;51.534;8.262;2023-08-24T11:49:49;30.90;53.50
17659;DHT22;8948;51.534;8.262;2023-08-24T11:54:51;30.70;50.10
17659;DHT22;8948;51.534;8.262;2023-08-24T11:59:52;30.70;50.90
17659;DHT22;8948;51.534;8.262;2023-08-24T12:04:52;30.70;49.00
17659;DHT22;8948;51.534;8.262;2023-08-24T12:09:53;30.70;47.60
17659;DHT22;8948;51.534;8.262;2023-08-24T12:14:55;30.60;49.90
17659;DHT22;8948;51.534;8.262;2023-08-24T12:19:59;30.60;50.20
17659;DHT22;8948;51.534;8.262;2023-08-24T12:25:00;30.70;48.90
17659;DHT22;8948;51.534;8.262;2023-08-24T12:30:02;30.60;46.90
17659;DHT22;8948;51.534;8.262;2023-08-24T12:35:02;30.60;48.20
17659;DHT22;8948;51.534;8.262;2023-08-24T12:40:04;30.40;48.70
17659;DHT22;8948;51.534;8.262;2023-08-24T12:45:08;30.40;46.80
17659;DHT22;8948;51.534;8.262;2023-08-24T12:50:09;30.60;46.30
17659;DHT22;8948;51.534;8.262;2023-08-24T12:55:09;30.60;45.10
17659;DHT22;8948;51.534;8.262;2023-08-24T13:00:10;30.80;45.80
17659;DHT22;8948;51.534;8.262;2023-08-24T13:05:11;31.00;45.00
17659;DHT22;8948;51.534;8.262;2023-08-24T13:10:12;30.80;44.00
17659;DHT22;8948;51.534;8.262;2023-08-24T13:15:13;30.60;46.20
17659;DHT22;8948;51.534;8.262;2023-08-24T13:20:14;30.70;46.00
17659;DHT22;8948;51.534;8.262;2023-08-24T13:25:14;30.60;47.00
17659;DHT22;8948;51.534;8.262;2023-08-24T13:30:15;30.60;47.40
17659;DHT22;8948;51.534;8.262;2023-08-24T13:35:15;30.60;46.60
17659;DHT22;8948;51.534;8.262;2023-08-24T13:40:16;30.50;48.10
17659;DHT22;8948;51.534;8.262;2023-08-24T13:45:17;30.60;47.40
17659;DHT22;8948;51.534;8.262;2023-08-24T13:50:17;30.50;47.60
17659;DHT22;8948;51.534;8.262;2023-08-24T13:55:18;30.30;47.40
17659;DHT22;8948;51.534;8.262;2023-08-24T14:00:19;30.30;47.00
17659;DHT22;8948;51.534;8.262;2023-08-24T14:05:20;29.80;45.80
17659;DHT22;8948;51.534;8.262;2023-08-24T14:10:20;29.60;47.50
17659;DHT22;8948;51.534;8.262;2023-08-24T14:15:21;29.50;48.80
17659;DHT22;8948;51.534;8.262;2023-08-24T14:25:26;29.20;48.90
17659;DHT22;8948;51.534;8.262;2023-08-24T14:30:27;28.90;48.80
17659;DHT22;8948;51.534;8.262;2023-08-24T14:35:27;28.70;49.90
17659;DHT22;8948;51.534;8.262;2023-08-24T14:40:28;28.70;51.00
17659;DHT22;8948;51.534;8.262;2023-08-24T14:45:28;28.60;50.20
17659;DHT22;8948;51.534;8.262;2023-08-24T14:50:29;28.40;50.00
17659;DHT22;8948;51.534;8.262;2023-08-24T14:55:29;28.50;50.30
17659;DHT22;8948;51.534;8.262;2023-08-24T15:00:30;28.50;50.30
17659;DHT22;8948;51.534;8.262;2023-08-24T15:05:31;28.70;50.30
17659;DHT22;8948;51.534;8.262;2023-08-24T15:10:37;28.70;50.70
17659;DHT22;8948;51.534;8.262;2023-08-24T15:15:38;28.70;51.50
17659;DHT22;8948;51.534;8.262;2023-08-24T15:20:39;28.70;50.10
17659;DHT22;8948;51.534;8.262;2023-08-24T15:25:39;28.60;51.80
17659;DHT22;8948;51.534;8.262;2023-08-24T15:30:40;28.40;51.50
17659;DHT22;8948;51.534;8.262;2023-08-24T15:35:42;28.40;51.90
17659;DHT22;8948;51.534;8.262;2023-08-24T15:40:51;28.50;53.00
17659;DHT22;8948;51.534;8.262;2023-08-24T15:45:53;28.50;52.10
17659;DHT22;8948;51.534;8.262;2023-08-24T15:50:57;28.50;53.30
17659;DHT22;8948;51.534;8.262;2023-08-24T15:55:58;28.50;53.10
17659;DHT22;8948;51.534;8.262;2023-08-24T16:00:59;28.40;52.40
17659;DHT22;8948;51.534;8.262;2023-08-24T16:05:59;28.30;52.40
17659;DHT22;8948;51.534;8.262;2023-08-24T16:11:00;28.10;51.70
17659;DHT22;8948;51.534;8.262;2023-08-24T16:16:01;27.90;52.50
17659;DHT22;8948;51.534;8.262;2023-08-24T16:21:01;27.70;52.30
17659;DHT22;8948;51.534;8.262;2023-08-24T16:26:02;27.50;52.00
17659;DHT22;8948;51.534;8.262;2023-08-24T16:31:03;27.20;52.50
17659;DHT22;8948;51.534;8.262;2023-08-24T16:36:04;27.10;53.30
17659;DHT22;8948;51.534;8.262;2023-08-24T16:41:04;27.10;55.00
17659;DHT22;8948;51.534;8.262;2023-08-24T16:46:05;26.80;56.20
17659;DHT22;8948;51.534;8.262;2023-08-24T16:51:06;26.60;57.70
17659;DHT22;8948;51.534;8.262;2023-08-24T16:56:07;26.50;58.90
17659;DHT22;8948;51.534;8.262;2023-08-24T17:01:08;26.50;59.90
17659;DHT22;8948;51.534;8.262;2023-08-24T17:06:09;26.40;59.10
17659;DHT22;8948;51.534;8.262;2023-08-24T17:11:10;26.10;60.20
17659;DHT22;8948;51.534;8.262;2023-08-24T17:16:10;26.10;59.60
17659;DHT22;8948;51.534;8.262;2023-08-24T17:21:11;26.00;59.40
17659;DHT22;8948;51.534;8.262;2023-08-24T17:26:13;25.90;60.20
17659;DHT22;8948;51.534;8.262;2023-08-24T17:31:13;25.80;60.20
17659;DHT22;8948;51.534;8.262;2023-08-24T17:36:14;25.60;60.60
17659;DHT22;8948;51.534;8.262;2023-08-24T17:41:14;25.40;60.60
17659;DHT22;8948;51.534;8.262;2023-08-24T17:46:15;25.20;61.10
17659;DHT22;8948;51.534;8.262;2023-08-24T17:51:15;25.10;61.40
17659;DHT22;8948;51.534;8.262;2023-08-24T17:56:16;25.10;61.20
17659;DHT22;8948;51.534;8.262;2023-08-24T18:01:17;25.00;60.90
17659;DHT22;8948;51.534;8.262;2023-08-24T18:06:17;24.90;61.50
17659;DHT22;8948;51.534;8.262;2023-08-24T18:11:18;24.90;61.90
17659;DHT22;8948;51.534;8.262;2023-08-24T18:16:18;25.00;61.70
17659;DHT22;8948;51.534;8.262;2023-08-24T18:21:19;25.00;61.40
17659;DHT22;8948;51.534;8.262;2023-08-24T18:26:19;25.00;61.20
17659;DHT22;8948;51.534;8.262;2023-08-24T18:31:20;24.70;61.70
17659;DHT22;8948;51.534;8.262;2023-08-24T18:36:24;24.50;61.50
17659;DHT22;8948;51.534;8.262;2023-08-24T18:41:24;24.40;61.90
17659;DHT22;8948;51.534;8.262;2023-08-24T18:46:25;24.40;61.80
17659;DHT22;8948;51.534;8.262;2023-08-24T18:51:26;24.30;61.90
17659;DHT22;8948;51.534;8.262;2023-08-24T18:56:26;24.30;62.30
17659;DHT22;8948;51.534;8.262;2023-08-24T19:01:27;24.30;61.60
17659;DHT22;8948;51.534;8.262;2023-08-24T19:06:27;24.20;62.30
17659;DHT22;8948;51.534;8.262;2023-08-24T19:11:28;24.20;61.90
17659;DHT22;8948;51.534;8.262;2023-08-24T19:16:28;24.30;61.90
17659;DHT22;8948;51.534;8.262;2023-08-24T19:21:29;24.30;62.20
17659;DHT22;8948;51.534;8.262;2023-08-24T19:26:30;24.20;62.50
17659;DHT22;8948;51.534;8.262;2023-08-24T19:31:31;24.40;62.00
17659;DHT22;8948;51.534;8.262;2023-08-24T19:36:31;24.30;62.80
17659;DHT22;8948;51.534;8.262;2023-08-24T19:41:32;24.40;62.30
17659;DHT22;8948;51.534;8.262;2023-08-24T19:46:32;24.50;62.70
17659;DHT22;8948;51.534;8.262;2023-08-24T19:51:34;24.40;62.60
17659;DHT22;8948;51.534;8.262;2023-08-24T19:56:35;24.30;62.60
17659;DHT22;8948;51.534;8.262;2023-08-24T20:01:35;24.20;62.80
17659;DHT22;8948;51.534;8.262;2023-08-24T20:06:36;24.10;63.00
17659;DHT22;8948;51.534;8.262;2023-08-24T20:11:36;24.00;63.30
17659;DHT22;8948;51.534;8.262;2023-08-24T20:16:37;23.90;63.30
17659;DHT22;8948;51.534;8.262;2023-08-24T20:21:38;23.80;63.30
17659;DHT22;8948;51.534;8.262;2023-08-24T20:26:39;23.70;63.00
17659;DHT22;8948;51.534;8.262;2023-08-24T20:31:39;23.70;62.80
17659;DHT22;8948;51.534;8.262;2023-08-24T20:36:40;23.60;62.70
17659;DHT22;8948;51.534;8.262;2023-08-24T20:41:40;23.50;62.70
17659;DHT22;8948;51.534;8.262;2023-08-24T20:46:44;23.40;63.10
17659;DHT22;8948;51.534;8.262;2023-08-24T20:51:45;23.40;63.20
17659;DHT22;8948;51.534;8.262;2023-08-24T20:56:46;23.30;63.40
17659;DHT22;8948;51.534;8.262;2023-08-24T21:01:46;23.20;63.30
17659;DHT22;8948;51.534;8.262;2023-08-24T21:06:47;23.20;63.80
17659;DHT22;8948;51.534;8.262;2023-08-24T21:11:47;23.10;63.60
17659;DHT22;8948;51.534;8.262;2023-08-24T21:16:48;23.10;63.70
17659;DHT22;8948;51.534;8.262;2023-08-24T21:21:48;23.00;64.10
17659;DHT22;8948;51.534;8.262;2023-08-24T21:26:49;22.90;64.60
17659;DHT22;8948;51.534;8.262;2023-08-24T21:31:49;22.80;64.80
17659;DHT22;8948;51.534;8.262;2023-08-24T21:36:50;22.80;65.00
17659;DHT22;8948;51.534;8.262;2023-08-24T21:41:50;22.70;65.30
17659;DHT22;8948;51.534;8.262;2023-08-24T21:46:51;22.70;65.40
17659;DHT22;8948;51.534;8.262;2023-08-24T21:51:52;22.70;65.10
17659;DHT22;8948;51.534;8.262;2023-08-24T21:56:52;22.60;65.00
17659;DHT22;8948;51.534;8.262;2023-08-24T22:01:53;22.50;65.00
17659;DHT22;8948;51.534;8.262;2023-08-24T22:06:53;22.50;65.10
17659;DHT22;8948;51.534;8.262;2023-08-24T22:11:54;22.40;65.50
17659;DHT22;8948;51.534;8.262;2023-08-24T22:16:55;22.20;66.00
17659;DHT22;8948;51.534;8.262;2023-08-24T22:21:55;22.20;65.70
17659;DHT22;8948;51.534;8.262;2023-08-24T22:26:56;22.00;66.10
17659;DHT22;8948;51.534;8.262;2023-08-24T22:31:58;21.90;65.90
17659;DHT22;8948;51.534;8.262;2023-08-24T22:36:58;21.90;65.70
17659;DHT22;8948;51.534;8.262;2023-08-24T22:41:59;21.80;66.20
17659;DHT22;8948;51.534;8.262;2023-08-24T22:46:59;21.90;65.90
17659;DHT22;8948;51.534;8.262;2023-08-24T22:52:00;21.90;65.40
17659;DHT22;8948;51.534;8.262;2023-08-24T22:57:00;21.80;66.10
17659;DHT22;8948;51.534;8.262;2023-08-24T23:02:02;21.80;66.40
17659;DHT22;8948;51.534;8.262;2023-08-24T23:07:04;21.50;67.30
17659;DHT22;8948;51.534;8.262;2023-08-24T23:12:05;21.50;67.20
17659;DHT22;8948;51.534;8.262;2023-08-24T23:17:06;21.30;68.00
17659;DHT22;8948;51.534;8.262;2023-08-24T23:22:06;21.20;68.70
17659;DHT22;8948;51.534;8.262;2023-08-24T23:27:07;21.20;68.20
17659;DHT22;8948;51.534;8.262;2023-08-24T23:32:08;21.40;67.70
17659;DHT22;8948;51.534;8.262;2023-08-24T23:37:09;21.50;67.40
17659;DHT22;8948;51.534;8.262;2023-08-24T23:42:09;21.50;67.10
17659;DHT22;8948;51.534;8.262;2023-08-24T23:47:10;21.50;67.20
17659;DHT22;8948;51.534;8.262;2023-08-24T23:52:10;21.20;67.80
17659;DHT22;8948;51.534;8.262;2023-08-24T23:57:11;21.20;67.80
